Time,TemperatureF,DewpointF,PressureIn,WindDirection,WindDirectionDegrees,WindSpeedMPH,WindSpeedGustMPH,Humidity,HourlyPrecipIn,Conditions,Clouds,dailyrainin,SoftwareType,DateUTC
2013-05-21 00:02:00,68.0,62.0,29.75,SSW,210,18.0,25.0,81,-99.99,,,-99.99,,2013-05-21 05:02:00,
2013-05-21 00:12:00,68.0,62.0,29.75,SSW,205,18.0,24.0,81,-99.99,,,-99.99,,2013-05-21 05:12:00,
2013-05-21 00:22:00,68.0,62.0,29.75,SSW,205,18.0,24.0,81,-99.99,,,-99.99,,2013-05-21 05:22:00,
2013-05-21 00:32:00,67.0,61.0,29.74,SSW,210,15.0,22.0,80,-99.99,,,-99.99,,2013-05-21 05:32:00,
2013-05-21 00:42:00,68.0,61.0,29.74,SW,215,13.0,19.0,79,-99.99,,,-99.99,,2013-05-21 05:42:00,
2013-05-21 00:51:00,67.0,61.0,29.75,SW,220,12.0,17.0,79,-99.99,,,-99.99,,2013-05-21 05:51:00,
2013-05-21 01:02:00,67.0,61.0,29.75,SW,220,12.0,17.0,79,-99.99,,,-99.99,,2013-05-21 06:02:00,
2013-05-21 01:12:00,67.0,61.0,29.74,SW,220,13.0,17.0,79,-99.99,,,-99.99,,2013-05-21 06:12:00,
2013-05-21 01:21:00,68.0,60.0,29.75,SW,235,15.0,21.0,76,-99.99,,,-99.99,,2013-05-21 06:21:00,
2013-05-21 01:32:00,68.0,60.0,29.75,SW,235,15.0,21.0,76,-99.99,,,-99.99,,2013-05-21 06:32:00,
2013-05-21 01:42:00,68.0,60.0,29.75,SW,225,16.0,26.0,76,-99.99,,,-99.99,,2013-05-21 06:42:00,
2013-05-21 01:52:00,68.0,60.0,29.75,SW,230,17.0,24.0,75,-99.99,,,-99.99,,2013-05-21 06:52:00,
2013-05-21 02:00:00,67.0,60.0,29.72,SW,215,15.0,20.0,77,-99.99,,,-99.99,,2013-05-21 07:00:00,
2013-05-21 02:01:00,68.0,60.0,29.75,SW,230,17.0,24.0,75,-99.99,,,-99.99,,2013-05-21 07:01:00,
2013-05-21 02:11:00,68.0,60.0,29.74,SW,230,17.0,20.0,76,-99.99,,,-99.99,,2013-05-21 07:11:00,
2013-05-21 02:22:00,67.0,60.0,29.73,SW,220,15.0,25.0,77,-99.99,,,-99.99,,2013-05-21 07:22:00,
2013-05-21 02:31:00,67.0,60.0,29.73,SW,220,15.0,25.0,77,-99.99,,,-99.99,,2013-05-21 07:31:00,
2013-05-21 02:41:00,67.0,60.0,29.72,SW,215,15.0,20.0,77,-99.99,,,-99.99,,2013-05-21 07:41:00,
2013-05-21 02:52:00,67.0,60.0,29.72,SW,215,15.0,20.0,77,-99.99,,,-99.99,,2013-05-21 07:52:00,
2013-05-21 03:42:00,66.0,59.0,29.73,SW,220,9.0,11.0,80,-99.99,,,-99.99,,2013-05-21 08:42:00,
2013-05-21 03:52:00,66.0,59.0,29.73,SW,220,9.0,11.0,80,-99.99,,,-99.99,,2013-05-21 08:52:00,
2013-05-21 04:01:00,65.0,60.0,29.73,SW,220,9.0,12.0,82,-99.99,,,-99.99,,2013-05-21 09:01:00,
2013-05-21 04:11:00,65.0,59.0,29.73,SW,215,9.0,13.0,81,-99.99,,,-99.99,,2013-05-21 09:11:00,
2013-05-21 04:21:00,65.0,59.0,29.73,SW,215,9.0,13.0,81,-99.99,,,-99.99,,2013-05-21 09:21:00,
2013-05-21 04:32:00,65.0,59.0,29.75,SW,220,10.0,13.0,81,-99.99,,,-99.99,,2013-05-21 09:32:00,
2013-05-21 04:42:00,65.0,59.0,29.75,SW,220,10.0,13.0,81,-99.99,,,-99.99,,2013-05-21 09:42:00,
2013-05-21 04:52:00,65.0,59.0,29.76,SW,225,10.0,15.0,81,-99.99,,,-99.99,,2013-05-21 09:52:00,
2013-05-21 05:02:00,65.0,59.0,29.76,SW,225,10.0,15.0,81,-99.99,,,-99.99,,2013-05-21 10:02:00,
2013-05-21 05:12:00,65.0,59.0,29.77,SW,215,10.0,15.0,81,-99.99,,,-99.99,,2013-05-21 10:12:00,
2013-05-21 05:22:00,65.0,59.0,29.77,SW,215,10.0,15.0,81,-99.99,,,-99.99,,2013-05-21 10:22:00,
2013-05-21 05:32:00,65.0,59.0,29.76,SSW,210,9.0,12.0,80,-99.99,,,-99.99,,2013-05-21 10:32:00,
2013-05-21 05:42:00,65.0,59.0,29.76,SSW,205,11.0,14.0,79,-99.99,,,-99.99,,2013-05-21 10:42:00,
2013-05-21 05:52:00,65.0,59.0,29.76,SSW,205,11.0,14.0,79,-99.99,,,-99.99,,2013-05-21 10:52:00,
2013-05-21 06:02:00,65.0,59.0,29.77,SW,215,12.0,14.0,80,-99.99,,,-99.99,,2013-05-21 11:02:00,
2013-05-21 06:12:00,66.0,59.0,29.78,SSW,210,11.0,15.0,79,-99.99,,,-99.99,,2013-05-21 11:12:00,
2013-05-21 06:21:00,66.0,59.0,29.78,SSW,210,11.0,15.0,79,-99.99,,,-99.99,,2013-05-21 11:21:00,
2013-05-21 06:32:00,66.0,59.0,29.79,WSW,245,8.0,12.0,79,-99.99,,,-99.99,,2013-05-21 11:32:00,
2013-05-21 06:41:00,66.0,59.0,29.77,SSW,210,8.0,12.0,78,-99.99,,,-99.99,,2013-05-21 11:41:00,
2013-05-21 06:51:00,66.0,59.0,29.77,SSW,210,8.0,12.0,78,-99.99,,,-99.99,,2013-05-21 11:51:00,
2013-05-21 07:01:00,66.0,59.0,29.77,SW,220,9.0,10.0,79,-99.99,,,-99.99,,2013-05-21 12:01:00,
2013-05-21 07:11:00,66.0,59.0,29.77,SSW,210,8.0,12.0,78,-99.99,,,-99.99,,2013-05-21 12:11:00,
2013-05-21 07:21:00,66.0,59.0,29.77,SSW,210,8.0,12.0,78,-99.99,,,-99.99,,2013-05-21 12:21:00,
2013-05-21 07:32:00,66.0,59.0,29.79,North,350,8.0,11.0,78,-99.99,,,-99.99,,2013-05-21 12:32:00,
2013-05-21 07:42:00,66.0,59.0,29.79,WSW,255,5.0,10.0,78,-99.99,,,-99.99,,2013-05-21 12:42:00,
2013-05-21 07:51:00,66.0,59.0,29.79,WSW,255,5.0,10.0,78,-99.99,,,-99.99,,2013-05-21 12:51:00,
2013-05-21 08:01:00,66.0,59.0,29.79,NW,310,3.0,9.0,78,-99.99,,,-99.99,,2013-05-21 13:01:00,
2013-05-21 08:12:00,66.0,59.0,29.79,NW,315,4.0,6.0,78,-99.99,,,-99.99,,2013-05-21 13:12:00,
2013-05-21 08:22:00,66.0,59.0,29.79,NW,315,4.0,6.0,78,-99.99,,,-99.99,,2013-05-21 13:22:00,
2013-05-21 08:32:00,67.0,60.0,29.78,WNW,295,3.0,5.0,79,-99.99,,,-99.99,,2013-05-21 13:32:00,
2013-05-21 08:41:00,67.0,60.0,29.79,WNW,300,4.0,7.0,79,-99.99,,,-99.99,,2013-05-21 13:41:00,
2013-05-21 08:52:00,67.0,60.0,29.79,WNW,300,4.0,7.0,79,-99.99,,,-99.99,,2013-05-21 13:52:00,
2013-05-21 09:00:00,69.0,61.0,29.79,NW,305,5.0,15.0,76,-99.99,,,-99.99,,2013-05-21 14:00:00,
2013-05-21 09:01:00,67.0,60.0,29.79,West,265,7.0,10.0,78,-99.99,,,-99.99,,2013-05-21 14:01:00,
2013-05-21 09:11:00,68.0,61.0,29.80,West,275,10.0,15.0,78,-99.99,,,-99.99,,2013-05-21 14:11:00,
2013-05-21 09:21:00,68.0,61.0,29.80,West,275,10.0,15.0,78,-99.99,,,-99.99,,2013-05-21 14:21:00,
2013-05-21 09:30:00,69.0,61.0,29.78,WNW,290,5.0,9.0,75,-99.99,,,-99.99,,2013-05-21 14:30:00,
2013-05-21 09:32:00,68.0,60.0,29.79,WNW,285,7.0,17.0,76,-99.99,,,-99.99,,2013-05-21 14:32:00,
2013-05-21 09:41:00,69.0,61.0,29.79,NW,305,5.0,15.0,76,-99.99,,,-99.99,,2013-05-21 14:41:00,
2013-05-21 09:51:00,69.0,61.0,29.79,NW,305,5.0,15.0,76,-99.99,,,-99.99,,2013-05-21 14:51:00,
2013-05-21 10:00:00,70.0,61.0,29.78,West,260,11.0,15.0,73,-99.99,,,-99.99,,2013-05-21 15:00:00,
2013-05-21 10:11:00,69.0,61.0,29.78,WNW,290,5.0,9.0,75,-99.99,,,-99.99,,2013-05-21 15:11:00,
2013-05-21 10:21:00,69.0,61.0,29.78,WNW,290,5.0,9.0,75,-99.99,,,-99.99,,2013-05-21 15:21:00,
2013-05-21 10:42:00,70.0,61.0,29.78,West,260,11.0,15.0,73,-99.99,,,-99.99,,2013-05-21 15:42:00,
2013-05-21 10:53:00,70.0,61.0,29.78,West,260,11.0,15.0,73,-99.99,,,-99.99,,2013-05-21 15:53:00,
2013-05-21 11:00:00,72.0,63.0,29.81,WSW,245,13.0,16.0,73,-99.99,,,-99.99,,2013-05-21 16:00:00,
2013-05-21 11:13:00,71.0,62.0,29.80,West,260,9.0,11.0,74,-99.99,,,-99.99,,2013-05-21 16:13:00,
2013-05-21 11:23:00,71.0,62.0,29.80,West,260,9.0,11.0,74,-99.99,,,-99.99,,2013-05-21 16:23:00,
2013-05-21 11:32:00,71.0,62.0,29.81,West,270,9.0,15.0,73,-99.99,,,-99.99,,2013-05-21 16:32:00,
2013-05-21 11:42:00,72.0,63.0,29.81,WSW,245,13.0,16.0,73,-99.99,,,-99.99,,2013-05-21 16:42:00,
2013-05-21 11:52:00,72.0,63.0,29.81,WSW,245,13.0,16.0,73,-99.99,,,-99.99,,2013-05-21 16:52:00,
2013-05-21 12:12:00,72.0,63.0,29.80,WSW,240,6.0,13.0,74,-99.99,,,-99.99,,2013-05-21 17:12:00,
2013-05-21 12:23:00,72.0,63.0,29.80,WSW,240,6.0,13.0,74,-99.99,,,-99.99,,2013-05-21 17:23:00,
2013-05-21 12:32:00,72.0,64.0,29.80,SW,230,8.0,14.0,75,-99.99,,,-99.99,,2013-05-21 17:32:00,
2013-05-21 12:43:00,72.0,64.0,29.78,SW,220,9.0,13.0,74,-99.99,,,-99.99,,2013-05-21 17:43:00,
2013-05-21 12:52:00,72.0,62.0,29.78,SW,235,7.0,12.0,71,-99.99,,,-99.99,,2013-05-21 17:52:00,
2013-05-21 13:02:00,72.0,62.0,29.78,SW,235,7.0,12.0,71,-99.99,,,-99.99,,2013-05-21 18:02:00,
2013-05-21 13:12:00,72.0,63.0,29.78,SW,235,5.0,9.0,73,-99.99,,,-99.99,,2013-05-21 18:12:00,
2013-05-21 13:22:00,72.0,62.0,29.80,WSW,240,10.0,13.0,71,-99.99,,,-99.99,,2013-05-21 18:22:00,
2013-05-21 13:32:00,72.0,62.0,29.80,WSW,240,10.0,13.0,71,-99.99,,,-99.99,,2013-05-21 18:32:00,
2013-05-21 13:42:00,72.0,62.0,29.80,West,265,9.0,14.0,71,-99.99,,,-99.99,,2013-05-21 18:42:00,
2013-05-21 13:51:00,71.0,62.0,29.80,WSW,245,9.0,14.0,73,-99.99,,,-99.99,,2013-05-21 18:51:00,
2013-05-21 14:01:00,71.0,62.0,29.80,WSW,245,9.0,14.0,73,-99.99,,,-99.99,,2013-05-21 19:01:00,
2013-05-21 14:11:00,72.0,63.0,29.81,West,275,7.0,12.0,74,-99.99,,,-99.99,,2013-05-21 19:11:00,
2013-05-21 14:21:00,71.0,62.0,29.81,WSW,240,13.0,22.0,75,-99.99,,,-99.99,,2013-05-21 19:21:00,
2013-05-21 14:32:00,71.0,62.0,29.81,WSW,240,13.0,22.0,75,-99.99,,,-99.99,,2013-05-21 19:32:00,
2013-05-21 14:42:00,71.0,62.0,29.81,WSW,250,12.0,20.0,75,-99.99,,,-99.99,,2013-05-21 19:42:00,
2013-05-21 14:52:00,71.0,61.0,29.80,WSW,250,14.0,22.0,71,-99.99,,,-99.99,,2013-05-21 19:52:00,
2013-05-21 15:03:00,71.0,61.0,29.80,WSW,250,14.0,22.0,71,-99.99,,,-99.99,,2013-05-21 20:03:00,
2013-05-21 15:11:00,70.0,60.0,29.80,SW,230,16.0,25.0,71,-99.99,,,-99.99,,2013-05-21 20:11:00,
2013-05-21 15:22:00,70.0,60.0,29.79,WSW,245,19.0,24.0,71,-99.99,,,-99.99,,2013-05-21 20:22:00,
2013-05-21 15:32:00,70.0,60.0,29.77,SW,220,13.0,22.0,71,-99.99,,,-99.99,,2013-05-21 20:32:00,
2013-05-21 15:42:00,70.0,60.0,29.77,SW,220,13.0,22.0,71,-99.99,,,-99.99,,2013-05-21 20:42:00,
2013-05-21 15:52:00,69.0,60.0,29.74,SSW,200,9.0,17.0,72,-99.99,,,-99.99,,2013-05-21 20:52:00,
2013-05-21 16:02:00,69.0,60.0,29.74,SSW,200,9.0,17.0,72,-99.99,,,-99.99,,2013-05-21 21:02:00,
2013-05-21 16:11:00,70.0,59.0,29.74,SW,230,8.0,13.0,69,-99.99,,,-99.99,,2013-05-21 21:11:00,
2013-05-21 16:21:00,71.0,61.0,29.76,West,275,8.0,13.0,70,-99.99,,,-99.99,,2013-05-21 21:21:00,
2013-05-21 16:33:00,71.0,61.0,29.76,West,275,8.0,13.0,70,-99.99,,,-99.99,,2013-05-21 21:33:00,
2013-05-21 16:43:00,71.0,60.0,29.75,WNW,285,7.0,17.0,68,-99.99,,,-99.99,,2013-05-21 21:43:00,
2013-05-21 16:53:00,71.0,59.0,29.75,NW,310,10.0,19.0,66,-99.99,,,-99.99,,2013-05-21 21:53:00,
2013-05-21 17:02:00,71.0,59.0,29.75,NW,310,10.0,19.0,66,-99.99,,,-99.99,,2013-05-21 22:02:00,
2013-05-21 17:12:00,72.0,62.0,29.75,WNW,300,7.0,15.0,69,-99.99,,,-99.99,,2013-05-21 22:12:00,
2013-05-21 17:22:00,73.0,59.0,29.74,West,275,9.0,20.0,62,-99.99,,,-99.99,,2013-05-21 22:22:00,
2013-05-21 17:33:00,74.0,59.0,29.75,WNW,285,9.0,16.0,61,-99.99,,,-99.99,,2013-05-21 22:33:00,
2013-05-21 17:42:00,74.0,59.0,29.75,WNW,285,9.0,16.0,61,-99.99,,,-99.99,,2013-05-21 22:42:00,
2013-05-21 17:52:00,73.0,60.0,29.73,WNW,300,7.0,15.0,63,-99.99,,,-99.99,,2013-05-21 22:52:00,
2013-05-21 18:02:00,73.0,60.0,29.73,WNW,300,7.0,15.0,63,-99.99,,,-99.99,,2013-05-21 23:02:00,
2013-05-21 18:12:00,74.0,60.0,29.75,West,275,11.0,18.0,63,-99.99,,,-99.99,,2013-05-21 23:12:00,
2013-05-21 18:22:00,72.0,59.0,29.76,West,270,13.0,21.0,64,-99.99,,,-99.99,,2013-05-21 23:22:00,
2013-05-21 18:32:00,72.0,59.0,29.76,West,270,13.0,21.0,64,-99.99,,,-99.99,,2013-05-21 23:32:00,
2013-05-21 18:42:00,72.0,61.0,29.76,WSW,250,12.0,19.0,67,-99.99,,,-99.99,,2013-05-21 23:42:00,
2013-05-21 18:52:00,72.0,60.0,29.74,WSW,240,13.0,21.0,68,-99.99,,,-99.99,,2013-05-21 23:52:00,
2013-05-21 19:01:00,72.0,60.0,29.74,WSW,240,13.0,21.0,68,-99.99,,,-99.99,,2013-05-22 00:01:00,
2013-05-21 19:11:00,71.0,60.0,29.75,WSW,250,13.0,21.0,67,-99.99,,,-99.99,,2013-05-22 00:11:00,
2013-05-21 19:21:00,70.0,60.0,29.73,SW,235,11.0,15.0,70,-99.99,,,-99.99,,2013-05-22 00:21:00,
2013-05-21 19:32:00,70.0,60.0,29.73,SW,235,11.0,15.0,70,-99.99,,,-99.99,,2013-05-22 00:32:00,
2013-05-21 19:41:00,70.0,60.0,29.73,SW,235,11.0,15.0,70,-99.99,,,-99.99,,2013-05-22 00:41:00,
2013-05-21 19:51:00,69.0,60.0,29.70,South,190,7.0,13.0,73,-99.99,,,-99.99,,2013-05-22 00:51:00,
2013-05-21 20:01:00,69.0,60.0,29.70,South,190,7.0,13.0,73,-99.99,,,-99.99,,2013-05-22 01:01:00,
2013-05-21 20:11:00,69.0,60.0,29.68,South,185,9.0,12.0,73,-99.99,,,-99.99,,2013-05-22 01:11:00,
2013-05-21 20:21:00,68.0,60.0,29.65,South,185,9.0,14.0,75,-99.99,,,-99.99,,2013-05-22 01:21:00,
2013-05-21 20:32:00,68.0,60.0,29.65,SSE,165,11.0,16.0,75,-99.99,,,-99.99,,2013-05-22 01:32:00,
2013-05-21 20:42:00,68.0,60.0,29.65,SSE,165,11.0,16.0,75,-99.99,,,-99.99,,2013-05-22 01:42:00,
2013-05-21 20:52:00,67.0,59.0,29.62,SSE,160,14.0,19.0,75,-99.99,,,-99.99,,2013-05-22 01:52:00,
2013-05-21 21:01:00,67.0,59.0,29.62,SSE,160,14.0,19.0,75,-99.99,,,-99.99,,2013-05-22 02:01:00,
2013-05-21 21:11:00,67.0,59.0,29.61,South,170,12.0,21.0,75,-99.99,,,-99.99,,2013-05-22 02:11:00,
2013-05-21 21:21:00,67.0,59.0,29.64,East,80,4.0,11.0,76,-99.99,,,-99.99,,2013-05-22 02:21:00,
2013-05-21 21:32:00,67.0,59.0,29.67,WNW,295,6.0,12.0,75,-99.99,,,-99.99,,2013-05-22 02:32:00,
2013-05-21 21:42:00,67.0,59.0,29.67,WNW,295,6.0,12.0,75,-99.99,,,-99.99,,2013-05-22 02:42:00,
2013-05-21 21:51:00,67.0,59.0,29.68,NNE,30,6.0,9.0,77,-99.99,,,-99.99,,2013-05-22 02:51:00,
2013-05-21 22:01:00,67.0,59.0,29.68,NNE,30,6.0,9.0,77,-99.99,,,-99.99,,2013-05-22 03:01:00,
2013-05-21 22:11:00,67.0,59.0,29.68,North,5,7.0,10.0,77,-99.99,,,-99.99,,2013-05-22 03:11:00,
2013-05-21 22:21:00,66.0,60.0,29.69,North,0,4.0,6.0,79,-99.99,,,-99.99,,2013-05-22 03:21:00,
2013-05-21 22:33:00,66.0,60.0,29.69,North,0,4.0,6.0,79,-99.99,,,-99.99,,2013-05-22 03:33:00,
2013-05-21 22:43:00,66.0,59.0,29.71,WNW,300,2.0,6.0,80,-99.99,,,-99.99,,2013-05-22 03:43:00,
2013-05-21 22:53:00,65.0,59.0,29.72,SW,230,2.0,4.0,83,-99.99,,,-99.99,,2013-05-22 03:53:00,
2013-05-21 23:03:00,65.0,59.0,29.72,SW,230,2.0,4.0,83,-99.99,,,-99.99,,2013-05-22 04:03:00,
2013-05-21 23:13:00,64.0,59.0,29.72,SW,225,3.0,6.0,84,-99.99,,,-99.99,,2013-05-22 04:13:00,
2013-05-21 23:23:00,64.0,59.0,29.73,WSW,250,4.0,6.0,85,-99.99,,,-99.99,,2013-05-22 04:23:00,
2013-05-21 23:33:00,64.0,59.0,29.73,WSW,250,4.0,6.0,85,-99.99,,,-99.99,,2013-05-22 04:33:00,
2013-05-21 23:43:00,63.0,59.0,29.73,West,265,3.0,6.0,85,-99.99,,,-99.99,,2013-05-22 04:43:00,
2013-05-21 23:53:00,63.0,59.0,29.73,WNW,295,3.0,6.0,86,-99.99,,,-99.99,,2013-05-22 04:53:00,